Terminal Aerodrome Forecast
Issued by NWS Wilmington, NC

Home | Current Version | Previous Version | Text Only | Print | Product List | Glossary On
Versions: 1 2 3 4 5 6 7 8 9 10 11 12 13 14 15 16
021
FTUS42 KILM 290406 AAB
TAFLBT
TAF AMD
KLBT 290406Z 2904/2924 20008KT P6SM VCTS FEW035CB BKN080
     FM290700 23005KT 3SM BR SCT120 BKN250
     FM291200 33009KT P6SM FEW040=

USA.gov is the U.S. government's official web portal to all federal, state and local government web resources and services.